Time;durP1;ratioP1;P1;durP2;ratioP2;P2;SDS_P1;SDS_P2;PMS_P1;PMS_P2;Temp;Humidity;BMP_temperature;BMP_pressure;BME280_temperature;BME280_humidity;BME280_pressure;Samples;Min_cycle;Max_cycle;Signal;HPM_P1;HPM_P2
2021/11/24 00:02:02;;;;;;;4.57;3.22;;;;;;;;;;5018456;28;20985;-59
2021/11/24 00:04:30;;;;;;;4.60;2.78;;;;;;;;;;5020853;28;20084;-59
2021/11/24 00:06:58;;;;;;;4.00;2.67;;;;;;;;;;5019307;28;20035;-60
2021/11/24 00:09:25;;;;;;;5.63;3.35;;;;;;;;;;5003429;28;20037;-60
2021/11/24 00:11:55;;;;;;;5.80;2.83;;;;;;;;;;5009544;28;20616;-60
2021/11/24 00:14:23;;;;;;;5.28;3.13;;;;;;;;;;4992192;28;20056;-60
2021/11/24 00:16:51;;;;;;;6.00;3.28;;;;;;;;;;5021283;28;20052;-60
2021/11/24 00:19:18;;;;;;;3.85;3.40;;;;;;;;;;5020673;28;20650;-60
2021/11/24 00:21:44;;;;;;;5.03;2.72;;;;;;;;;;5018784;28;20040;-60
2021/11/24 00:24:11;;;;;;;5.15;3.05;;;;;;;;;;5000158;28;20118;-60
2021/11/24 00:26:39;;;;;;;3.70;2.75;;;;;;;;;;5020016;28;20077;-59
2021/11/24 00:29:05;;;;;;;10.25;3.58;;;;;;;;;;5019353;28;20563;-60
2021/11/24 00:31:33;;;;;;;3.13;2.58;;;;;;;;;;5002692;28;20033;-60
2021/11/24 00:34:00;;;;;;;3.17;2.83;;;;;;;;;;5018249;28;20056;-60
2021/11/24 00:36:26;;;;;;;7.18;3.20;;;;;;;;;;5016926;28;20037;-58
2021/11/24 00:38:56;;;;;;;8.73;3.35;;;;;;;;;;5031708;28;20044;-61
2021/11/24 00:45:03;;;;;;;7.07;3.13;;;;;;;;;;5017596;28;20031;-59
2021/11/24 00:47:31;;;;;;;7.18;2.95;;;;;;;;;;5017391;28;20036;-59
2021/11/24 00:49:59;;;;;;;5.95;3.03;;;;;;;;;;5033441;28;20034;-59
2021/11/24 00:52:29;;;;;;;5.97;3.38;;;;;;;;;;5022110;28;20025;-60
2021/11/24 00:54:57;;;;;;;9.05;3.65;;;;;;;;;;5031891;28;20018;-59
2021/11/24 00:57:25;;;;;;;7.82;3.55;;;;;;;;;;5018222;28;20350;-60
2021/11/24 00:59:53;;;;;;;5.18;3.35;;;;;;;;;;5022683;28;20045;-59
2021/11/24 01:02:19;;;;;;;3.22;2.90;;;;;;;;;;5005303;28;20103;-60
2021/11/24 01:04:46;;;;;;;6.47;3.40;;;;;;;;;;5002286;28;20486;-60
2021/11/24 01:07:12;;;;;;;6.47;3.38;;;;;;;;;;5018375;28;20033;-59
2021/11/24 01:09:40;;;;;;;5.53;3.80;;;;;;;;;;5015296;28;20118;-60
2021/11/24 01:12:06;;;;;;;5.38;3.40;;;;;;;;;;5016798;28;20033;-58
2021/11/24 01:14:36;;;;;;;4.20;2.75;;;;;;;;;;5019271;28;20025;-59
2021/11/24 01:17:04;;;;;;;8.30;3.45;;;;;;;;;;5002680;28;20040;-59
2021/11/24 01:19:29;;;;;;;9.63;2.92;;;;;;;;;;5031852;28;22120;-59
2021/11/24 01:21:55;;;;;;;5.82;3.45;;;;;;;;;;5024411;28;20041;-59
2021/11/24 01:24:23;;;;;;;5.05;2.90;;;;;;;;;;5015762;28;22079;-59
2021/11/24 01:26:50;;;;;;;5.60;3.25;;;;;;;;;;5018428;28;20074;-59
2021/11/24 01:29:21;;;;;;;9.13;3.20;;;;;;;;;;5018626;28;20037;-59
2021/11/24 01:31:46;;;;;;;5.28;3.00;;;;;;;;;;5012396;28;20025;-59
2021/11/24 01:34:17;;;;;;;7.95;3.05;;;;;;;;;;5018391;28;20874;-59
2021/11/24 01:36:47;;;;;;;3.38;2.90;;;;;;;;;;5020618;28;20071;-59
2021/11/24 01:39:18;;;;;;;6.05;3.47;;;;;;;;;;5017620;28;20029;-58
2021/11/24 01:41:44;;;;;;;7.72;3.17;;;;;;;;;;5031847;28;20053;-59
2021/11/24 01:44:23;;;;;;;6.80;2.85;;;;;;;;;;5013905;28;20124;-59
2021/11/24 01:46:51;;;;;;;4.88;3.38;;;;;;;;;;5015734;28;20048;-59
2021/11/24 01:49:19;;;;;;;5.65;3.78;;;;;;;;;;5016925;28;20033;-59
2021/11/24 01:51:46;;;;;;;8.05;2.65;;;;;;;;;;5017866;28;20037;-59
2021/11/24 01:54:15;;;;;;;6.20;2.72;;;;;;;;;;5016301;28;20103;-60
2021/11/24 01:56:45;;;;;;;5.72;2.70;;;;;;;;;;5014735;28;20079;-58
2021/11/24 01:59:16;;;;;;;3.13;2.53;;;;;;;;;;5016991;28;20025;-59
2021/11/24 02:01:45;;;;;;;4.68;2.28;;;;;;;;;;5005606;28;20802;-59
2021/11/24 02:04:11;;;;;;;5.15;2.95;;;;;;;;;;4999318;28;20056;-59
2021/11/24 02:06:37;;;;;;;4.70;2.70;;;;;;;;;;5015482;28;21203;-60
2021/11/24 02:09:03;;;;;;;5.90;2.70;;;;;;;;;;5006826;28;20037;-60
2021/11/24 02:11:34;;;;;;;7.30;3.20;;;;;;;;;;5016729;28;20040;-59
2021/11/24 02:13:59;;;;;;;3.80;2.50;;;;;;;;;;5016821;28;20021;-59
2021/11/24 02:20:02;;;;;;;5.28;2.38;;;;;;;;;;5017934;28;20039;-59
2021/11/24 02:22:35;;;;;;;3.40;2.05;;;;;;;;;;5019856;28;20033;-60
2021/11/24 02:25:06;;;;;;;2.50;2.30;;;;;;;;;;5004130;28;20037;-59
2021/11/24 02:27:36;;;;;;;2.65;2.28;;;;;;;;;;5015976;28;20036;-61
2021/11/24 02:30:07;;;;;;;4.18;2.30;;;;;;;;;;5032082;28;20032;-59
2021/11/24 02:32:35;;;;;;;2.42;1.80;;;;;;;;;;5015320;28;20501;-59
2021/11/24 02:35:05;;;;;;;2.13;1.95;;;;;;;;;;5007613;28;20033;-59
2021/11/24 02:37:31;;;;;;;3.25;2.10;;;;;;;;;;5023668;28;20021;-59
2021/11/24 02:39:59;;;;;;;4.18;2.20;;;;;;;;;;5016638;28;20048;-60
2021/11/24 02:42:24;;;;;;;4.00;2.35;;;;;;;;;;4998701;28;20064;-59
2021/11/24 02:44:55;;;;;;;3.78;2.08;;;;;;;;;;5017486;28;20029;-59
2021/11/24 02:47:25;;;;;;;3.00;2.40;;;;;;;;;;5019900;28;20069;-59
2021/11/24 02:49:59;;;;;;;4.78;2.80;;;;;;;;;;5015501;28;20059;-60
2021/11/24 02:52:27;;;;;;;6.18;2.50;;;;;;;;;;5016926;28;20055;-58
2021/11/24 02:54:59;;;;;;;8.68;3.17;;;;;;;;;;5016807;28;20040;-59
2021/11/24 02:57:36;;;;;;;5.55;2.60;;;;;;;;;;5013518;28;20053;-59
2021/11/24 03:00:24;;;;;;;4.57;2.50;;;;;;;;;;5015930;28;20034;-60
2021/11/24 03:02:54;;;;;;;5.72;2.13;;;;;;;;;;5006067;28;20980;-60
2021/11/24 03:05:54;;;;;;;4.32;2.20;;;;;;;;;;5017408;28;20639;-60
2021/11/24 03:08:24;;;;;;;9.07;2.75;;;;;;;;;;5014621;28;20033;-60
2021/11/24 03:11:20;;;;;;;2.88;2.13;;;;;;;;;;5015107;28;20572;-60
2021/11/24 03:13:51;;;;;;;4.72;2.10;;;;;;;;;;5014415;28;20095;-60
2021/11/24 03:16:21;;;;;;;3.10;2.00;;;;;;;;;;5005592;28;20148;-59
2021/11/24 03:18:49;;;;;;;3.33;2.00;;;;;;;;;;5030572;28;21452;-59
2021/11/24 03:21:17;;;;;;;3.90;2.20;;;;;;;;;;5018163;28;20040;-60
2021/11/24 03:23:47;;;;;;;1.80;1.55;;;;;;;;;;4998953;28;20172;-61
2021/11/24 03:26:19;;;;;;;6.00;2.22;;;;;;;;;;5014365;28;20063;-60
2021/11/24 03:28:45;;;;;;;4.90;1.88;;;;;;;;;;5016315;28;20021;-60
2021/11/24 03:31:11;;;;;;;7.15;1.90;;;;;;;;;;5015055;28;20111;-59
2021/11/24 03:33:38;;;;;;;2.85;1.70;;;;;;;;;;5015447;28;20034;-59
2021/11/24 03:36:04;;;;;;;3.80;1.63;;;;;;;;;;5018202;28;20311;-59
2021/11/24 03:38:32;;;;;;;2.08;1.42;;;;;;;;;;5005509;28;20032;-59
2021/11/24 03:40:57;;;;;;;5.93;1.60;;;;;;;;;;4999630;28;20037;-58
2021/11/24 03:43:28;;;;;;;2.05;1.50;;;;;;;;;;5016099;28;20171;-59
2021/11/24 03:45:54;;;;;;;2.67;2.00;;;;;;;;;;5013177;28;20034;-59
2021/11/24 03:48:20;;;;;;;3.83;1.75;;;;;;;;;;5006522;28;20045;-59
2021/11/24 03:50:47;;;;;;;2.22;1.77;;;;;;;;;;5014311;28;20073;-59
2021/11/24 03:53:17;;;;;;;4.22;1.92;;;;;;;;;;5015184;28;20033;-59
2021/11/24 03:55:45;;;;;;;2.33;1.75;;;;;;;;;;5021354;28;20495;-59
2021/11/24 03:58:10;;;;;;;3.15;1.90;;;;;;;;;;5014868;28;20090;-59
2021/11/24 04:00:36;;;;;;;4.13;1.75;;;;;;;;;;5015573;28;20033;-60
2021/11/24 04:03:02;;;;;;;2.13;1.50;;;;;;;;;;5015714;28;20113;-59
2021/11/24 04:05:28;;;;;;;8.23;1.75;;;;;;;;;;5015741;28;20475;-58
2021/11/24 04:07:53;;;;;;;2.58;1.77;;;;;;;;;;5013506;28;20508;-59
2021/11/24 04:10:22;;;;;;;5.53;2.20;;;;;;;;;;5016439;28;20412;-60
2021/11/24 04:12:50;;;;;;;5.93;2.28;;;;;;;;;;5015547;28;20026;-59
2021/11/24 04:15:19;;;;;;;1.85;1.55;;;;;;;;;;5014507;28;20033;-59
2021/11/24 04:17:48;;;;;;;2.65;2.15;;;;;;;;;;5016751;28;20132;-59
2021/11/24 04:20:17;;;;;;;3.42;1.98;;;;;;;;;;5014231;28;20048;-60
2021/11/24 04:22:45;;;;;;;8.57;2.05;;;;;;;;;;4999685;28;20076;-59
2021/11/24 04:25:14;;;;;;;4.43;2.17;;;;;;;;;;5016105;28;20025;-59
2021/11/24 04:27:39;;;;;;;5.40;2.10;;;;;;;;;;5016303;28;20480;-58
2021/11/24 04:30:09;;;;;;;3.50;1.98;;;;;;;;;;5017800;28;20052;-58
2021/11/24 04:32:37;;;;;;;2.80;1.65;;;;;;;;;;5020007;28;20029;-60
2021/11/24 04:35:09;;;;;;;5.85;1.85;;;;;;;;;;5019952;28;20041;-59
2021/11/24 04:37:37;;;;;;;18.73;2.20;;;;;;;;;;5008281;28;20083;-60
2021/11/24 04:40:04;;;;;;;2.95;2.00;;;;;;;;;;5018440;28;20571;-59
2021/11/24 04:42:30;;;;;;;2.67;1.75;;;;;;;;;;5016269;28;20170;-60
2021/11/24 04:44:58;;;;;;;2.28;1.77;;;;;;;;;;5017916;28;20051;-59
2021/11/24 04:47:26;;;;;;;2.60;1.73;;;;;;;;;;5017928;28;20041;-60
2021/11/24 04:49:54;;;;;;;5.50;1.73;;;;;;;;;;5020122;28;20034;-59
2021/11/24 04:52:19;;;;;;;3.67;1.75;;;;;;;;;;5025725;28;20114;-60
2021/11/24 04:54:45;;;;;;;2.70;1.92;;;;;;;;;;5025561;28;20029;-61
2021/11/24 04:57:14;;;;;;;4.80;1.88;;;;;;;;;;5017686;28;20041;-59
2021/11/24 04:59:44;;;;;;;4.50;1.88;;;;;;;;;;5018376;28;20152;-58
2021/11/24 05:02:12;;;;;;;2.67;1.60;;;;;;;;;;5018676;28;20068;-59
2021/11/24 05:04:41;;;;;;;4.93;1.60;;;;;;;;;;5018277;28;20040;-59
2021/11/24 05:07:08;;;;;;;3.58;2.08;;;;;;;;;;5017918;28;20037;-59
2021/11/24 05:09:36;;;;;;;1.77;1.60;;;;;;;;;;5007471;28;20041;-59
2021/11/24 05:12:04;;;;;;;5.50;1.80;;;;;;;;;;5018547;28;22077;-59
2021/11/24 05:14:36;;;;;;;2.83;1.85;;;;;;;;;;5017649;28;20029;-59
2021/11/24 05:17:06;;;;;;;8.55;1.90;;;;;;;;;;5007350;28;20036;-58
2021/11/24 05:19:38;;;;;;;3.08;1.85;;;;;;;;;;4986848;28;20032;-59
2021/11/24 05:22:09;;;;;;;2.88;1.90;;;;;;;;;;5024315;28;20692;-59
2021/11/24 05:24:40;;;;;;;2.65;1.88;;;;;;;;;;5016298;28;20037;-59
2021/11/24 05:27:07;;;;;;;8.48;2.33;;;;;;;;;;5022943;28;20033;-59
2021/11/24 05:29:33;;;;;;;2.75;2.15;;;;;;;;;;5005789;28;20830;-59
2021/11/24 05:31:58;;;;;;;3.75;2.35;;;;;;;;;;5009076;28;20155;-59
2021/11/24 05:34:24;;;;;;;5.75;2.10;;;;;;;;;;5014941;28;20037;-59
2021/11/24 05:36:57;;;;;;;3.38;2.22;;;;;;;;;;5022015;28;20025;-60
2021/11/24 05:39:25;;;;;;;3.90;2.30;;;;;;;;;;5006114;28;20991;-60
2021/11/24 05:41:50;;;;;;;4.63;2.45;;;;;;;;;;5022408;28;20037;-60
2021/11/24 05:46:56;;;;;;;4.47;2.53;;;;;;;;;;5001633;28;20049;-59
2021/11/24 05:49:22;;;;;;;3.53;2.40;;;;;;;;;;5024313;28;20037;-60
2021/11/24 05:51:50;;;;;;;3.42;2.45;;;;;;;;;;5017563;28;20447;-60
2021/11/24 05:54:23;;;;;;;5.38;2.30;;;;;;;;;;5016722;28;20025;-59
2021/11/24 05:56:48;;;;;;;4.13;2.20;;;;;;;;;;5015387;28;20546;-59
2021/11/24 05:59:17;;;;;;;7.97;2.50;;;;;;;;;;5000000;28;20025;-60
2021/11/24 06:01:48;;;;;;;3.60;2.40;;;;;;;;;;5016464;28;20029;-59
2021/11/24 06:04:13;;;;;;;3.50;1.80;;;;;;;;;;4999737;28;20140;-60
2021/11/24 06:06:39;;;;;;;7.88;2.50;;;;;;;;;;5023898;28;20039;-59
2021/11/24 06:09:07;;;;;;;6.00;3.17;;;;;;;;;;5017561;28;20017;-59
2021/11/24 06:11:32;;;;;;;8.38;2.63;;;;;;;;;;5014629;28;20095;-60
2021/11/24 06:14:02;;;;;;;4.30;2.58;;;;;;;;;;5020809;28;20033;-59
2021/11/24 06:16:30;;;;;;;3.63;2.03;;;;;;;;;;5021457;28;20131;-59
2021/11/24 06:19:01;;;;;;;3.85;2.60;;;;;;;;;;5004391;28;20034;-59
2021/11/24 06:21:29;;;;;;;4.75;2.60;;;;;;;;;;5018604;28;20037;-59
2021/11/24 06:23:57;;;;;;;3.50;1.80;;;;;;;;;;5003560;28;20567;-61
2021/11/24 06:26:25;;;;;;;3.33;1.92;;;;;;;;;;5019570;28;20040;-59
2021/11/24 06:28:53;;;;;;;3.33;2.22;;;;;;;;;;5001619;28;20044;-59
2021/11/24 06:31:19;;;;;;;5.50;1.77;;;;;;;;;;5017546;28;20132;-60
2021/11/24 06:33:48;;;;;;;3.80;2.10;;;;;;;;;;5016728;28;20503;-59
2021/11/24 06:36:19;;;;;;;8.45;2.03;;;;;;;;;;5016584;28;20018;-60
2021/11/24 06:38:46;;;;;;;2.97;2.13;;;;;;;;;;5005408;28;20030;-60
2021/11/24 06:41:14;;;;;;;7.43;3.58;;;;;;;;;;5016128;28;20156;-60
2021/11/24 06:43:42;;;;;;;8.05;3.25;;;;;;;;;;5003134;28;20270;-60
2021/11/24 06:46:09;;;;;;;6.90;3.25;;;;;;;;;;5021987;28;20509;-60
2021/11/24 06:48:37;;;;;;;11.70;2.80;;;;;;;;;;5007683;28;20038;-60
2021/11/24 06:51:05;;;;;;;6.22;3.17;;;;;;;;;;5017207;28;20037;-59
2021/11/24 06:53:33;;;;;;;4.75;2.50;;;;;;;;;;5000961;28;20385;-59
2021/11/24 06:56:04;;;;;;;5.53;3.30;;;;;;;;;;5017092;28;20052;-60
2021/11/24 06:58:32;;;;;;;8.88;4.57;;;;;;;;;;5014937;28;20022;-61
2021/11/24 07:01:00;;;;;;;11.00;3.13;;;;;;;;;;5017408;28;20090;-61
2021/11/24 07:03:27;;;;;;;9.57;3.10;;;;;;;;;;5016067;28;20029;-60
2021/11/24 07:05:55;;;;;;;5.57;2.50;;;;;;;;;;5014015;28;20094;-60
2021/11/24 07:08:23;;;;;;;5.00;2.10;;;;;;;;;;5016325;28;20606;-59
2021/11/24 07:10:51;;;;;;;5.05;2.17;;;;;;;;;;5014610;28;20037;-59
2021/11/24 07:13:19;;;;;;;4.20;2.47;;;;;;;;;;5016281;28;20028;-62
2021/11/24 07:15:52;;;;;;;4.60;2.33;;;;;;;;;;5016613;28;20045;-60
2021/11/24 07:18:18;;;;;;;6.97;2.67;;;;;;;;;;5013354;28;20637;-60
2021/11/24 07:20:48;;;;;;;3.10;2.40;;;;;;;;;;5002228;28;20051;-59
2021/11/24 07:23:14;;;;;;;4.70;2.63;;;;;;;;;;5012962;28;20061;-59
2021/11/24 07:25:44;;;;;;;7.40;2.17;;;;;;;;;;5017407;28;22252;-59
2021/11/24 07:28:10;;;;;;;15.48;3.50;;;;;;;;;;5021140;28;20144;-59
2021/11/24 07:30:38;;;;;;;6.68;2.20;;;;;;;;;;5013406;28;20029;-60
2021/11/24 07:33:04;;;;;;;7.78;2.30;;;;;;;;;;5016682;28;21239;-59
2021/11/24 07:35:32;;;;;;;6.05;2.13;;;;;;;;;;5000011;28;20033;-59
2021/11/24 07:38:03;;;;;;;5.22;2.53;;;;;;;;;;5013672;28;20040;-60
2021/11/24 07:40:33;;;;;;;4.30;2.38;;;;;;;;;;5014957;28;20045;-60
2021/11/24 07:42:59;;;;;;;6.93;2.28;;;;;;;;;;5014926;28;20040;-59
2021/11/24 07:45:24;;;;;;;3.83;2.03;;;;;;;;;;5016487;28;20446;-60
2021/11/24 07:47:49;;;;;;;5.38;2.15;;;;;;;;;;5006331;28;20072;-60
2021/11/24 07:50:17;;;;;;;4.00;2.08;;;;;;;;;;5014049;28;20478;-59
2021/11/24 07:52:45;;;;;;;6.68;2.15;;;;;;;;;;5017024;28;20017;-59
2021/11/24 07:55:13;;;;;;;3.58;1.58;;;;;;;;;;5014281;28;20034;-60
2021/11/24 07:57:39;;;;;;;3.03;1.63;;;;;;;;;;5015886;28;20120;-60
2021/11/24 08:00:12;;;;;;;5.20;1.80;;;;;;;;;;5012198;28;20712;-59
2021/11/24 08:02:40;;;;;;;4.78;1.80;;;;;;;;;;5022954;28;20049;-60
2021/11/24 08:05:08;;;;;;;3.33;1.77;;;;;;;;;;5006405;28;20135;-60
2021/11/24 08:07:36;;;;;;;6.85;1.67;;;;;;;;;;5018573;28;20055;-60
2021/11/24 08:10:10;;;;;;;2.60;1.63;;;;;;;;;;5017133;28;21123;-59
2021/11/24 08:12:35;;;;;;;4.68;1.88;;;;;;;;;;5018581;28;20064;-59
2021/11/24 08:15:01;;;;;;;3.50;1.75;;;;;;;;;;5019699;28;20379;-59
2021/11/24 08:17:26;;;;;;;4.80;2.03;;;;;;;;;;5021539;28;20037;-60
2021/11/24 08:19:55;;;;;;;4.45;1.83;;;;;;;;;;5018186;28;20033;-60
2021/11/24 08:22:22;;;;;;;2.40;1.40;;;;;;;;;;5016138;28;20065;-60
2021/11/24 08:24:48;;;;;;;4.60;1.98;;;;;;;;;;5019543;28;20029;-60
2021/11/24 08:27:16;;;;;;;8.82;1.92;;;;;;;;;;5019164;28;20036;-60
2021/11/24 08:29:42;;;;;;;1.77;1.55;;;;;;;;;;5024060;28;20036;-60
2021/11/24 08:32:08;;;;;;;7.00;1.52;;;;;;;;;;5018143;28;20021;-59
2021/11/24 08:34:36;;;;;;;3.70;1.60;;;;;;;;;;5019380;28;20040;-61
2021/11/24 08:37:01;;;;;;;1.38;1.13;;;;;;;;;;5004939;28;20500;-60
2021/11/24 08:39:27;;;;;;;2.88;1.25;;;;;;;;;;5018348;28;20026;-60
2021/11/24 08:41:52;;;;;;;3.47;1.20;;;;;;;;;;5015937;28;20540;-59
2021/11/24 08:44:18;;;;;;;1.90;1.13;;;;;;;;;;5019152;28;20044;-59
2021/11/24 08:46:47;;;;;;;6.03;1.23;;;;;;;;;;5019967;28;20128;-60
2021/11/24 08:49:15;;;;;;;2.35;1.40;;;;;;;;;;5025206;28;20033;-60
2021/11/24 08:51:43;;;;;;;2.85;1.20;;;;;;;;;;5019206;28;20087;-59
2021/11/24 08:54:12;;;;;;;4.82;1.23;;;;;;;;;;5015754;28;20461;-60
2021/11/24 08:56:38;;;;;;;3.25;1.35;;;;;;;;;;5018923;28;20089;-60
2021/11/24 08:59:05;;;;;;;3.28;1.40;;;;;;;;;;5016131;28;20076;-60
2021/11/24 09:01:34;;;;;;;3.28;1.20;;;;;;;;;;5017525;28;20039;-60
2021/11/24 09:04:00;;;;;;;6.05;1.63;;;;;;;;;;5019258;28;20076;-59
2021/11/24 09:06:30;;;;;;;1.40;0.82;;;;;;;;;;5017997;28;20041;-60
2021/11/24 09:09:01;;;;;;;1.40;1.10;;;;;;;;;;5018557;28;20033;-60
2021/11/24 09:11:27;;;;;;;1.88;0.80;;;;;;;;;;5004058;28;20036;-59
2021/11/24 09:13:55;;;;;;;0.98;0.88;;;;;;;;;;5017115;28;20033;-60
2021/11/24 09:16:23;;;;;;;7.05;1.50;;;;;;;;;;5016508;28;22199;-59
2021/11/24 09:18:49;;;;;;;3.88;1.27;;;;;;;;;;5018192;28;20021;-59
2021/11/24 09:21:15;;;;;;;5.57;1.23;;;;;;;;;;5020037;28;20026;-59
2021/11/24 09:23:45;;;;;;;3.25;0.80;;;;;;;;;;5018840;28;20057;-59
2021/11/24 09:28:57;;;;;;;1.10;0.95;;;;;;;;;;5019344;28;20100;-60
2021/11/24 09:31:26;;;;;;;4.75;1.58;;;;;;;;;;5017776;28;20690;-60
2021/11/24 09:33:52;;;;;;;1.33;1.20;;;;;;;;;;5017516;28;20040;-60
2021/11/24 09:36:22;;;;;;;2.38;1.33;;;;;;;;;;5017784;28;20491;-59
2021/11/24 09:38:47;;;;;;;2.33;1.50;;;;;;;;;;5002818;28;21276;-59
2021/11/24 09:41:13;;;;;;;2.25;1.23;;;;;;;;;;5017519;28;21378;-58
2021/11/24 09:43:43;;;;;;;2.03;1.10;;;;;;;;;;5018074;28;20037;-59
2021/11/24 09:46:17;;;;;;;1.90;1.45;;;;;;;;;;5016383;28;20160;-60
2021/11/24 09:48:50;;;;;;;6.65;1.45;;;;;;;;;;5019064;28;20029;-59
2021/11/24 09:51:16;;;;;;;1.90;1.60;;;;;;;;;;5018500;28;20037;-60
2021/11/24 09:53:44;;;;;;;2.08;1.50;;;;;;;;;;5015212;28;20025;-60
2021/11/24 09:56:18;;;;;;;3.15;1.50;;;;;;;;;;5017464;28;20512;-59
2021/11/24 09:58:44;;;;;;;2.40;1.30;;;;;;;;;;5020651;28;20030;-60
2021/11/24 10:01:10;;;;;;;3.20;1.42;;;;;;;;;;5018786;28;20036;-64
2021/11/24 10:03:38;;;;;;;2.25;1.17;;;;;;;;;;5016908;28;20040;-61
2021/11/24 10:06:06;;;;;;;4.30;1.70;;;;;;;;;;5016869;28;20076;-59
2021/11/24 10:08:32;;;;;;;3.15;1.58;;;;;;;;;;5014789;28;20033;-59
2021/11/24 10:11:03;;;;;;;8.02;1.50;;;;;;;;;;5019029;28;20052;-60
2021/11/24 10:13:29;;;;;;;6.85;1.60;;;;;;;;;;5014998;28;20029;-59
2021/11/24 10:15:58;;;;;;;15.60;1.73;;;;;;;;;;5013917;28;20048;-61
2021/11/24 10:18:29;;;;;;;2.90;1.60;;;;;;;;;;5017787;28;20686;-59
2021/11/24 10:20:57;;;;;;;11.35;2.38;;;;;;;;;;5015496;28;20120;-60
2021/11/24 10:23:27;;;;;;;4.05;1.65;;;;;;;;;;5015299;28;20033;-59
2021/11/24 10:25:55;;;;;;;2.03;1.52;;;;;;;;;;5016546;28;20130;-60
2021/11/24 10:28:31;;;;;;;3.72;1.63;;;;;;;;;;5011904;28;21056;-60
2021/11/24 10:30:59;;;;;;;1.88;1.42;;;;;;;;;;5017646;28;20453;-59
2021/11/24 10:33:30;;;;;;;3.13;2.38;;;;;;;;;;5015899;28;20029;-59
2021/11/24 10:36:08;;;;;;;2.47;1.73;;;;;;;;;;5016932;28;20029;-59
2021/11/24 10:38:38;;;;;;;3.95;1.70;;;;;;;;;;5016590;28;20032;-60
2021/11/24 10:41:04;;;;;;;3.33;1.65;;;;;;;;;;5017339;28;20399;-60
2021/11/24 10:43:40;;;;;;;3.83;1.67;;;;;;;;;;5021579;28;22016;-60
2021/11/24 10:46:13;;;;;;;4.60;2.22;;;;;;;;;;5005970;28;20037;-59
2021/11/24 10:48:41;;;;;;;5.78;1.33;;;;;;;;;;4998162;28;20037;-59
2021/11/24 10:51:26;;;;;;;3.70;1.83;;;;;;;;;;5016864;28;20065;-59
2021/11/24 10:54:03;;;;;;;5.13;1.90;;;;;;;;;;5022158;28;20440;-60
2021/11/24 10:56:29;;;;;;;6.60;1.45;;;;;;;;;;5005024;28;20681;-59
2021/11/24 10:59:13;;;;;;;2.17;1.58;;;;;;;;;;4999907;28;20038;-60
2021/11/24 11:01:39;;;;;;;3.10;1.83;;;;;;;;;;4989364;28;20038;-60
2021/11/24 11:04:08;;;;;;;7.63;2.00;;;;;;;;;;5002678;28;20557;-60
2021/11/24 11:06:34;;;;;;;2.67;1.77;;;;;;;;;;4999803;28;20460;-60
2021/11/24 11:09:05;;;;;;;3.22;1.25;;;;;;;;;;4998068;28;20037;-61
2021/11/24 11:11:31;;;;;;;2.47;1.70;;;;;;;;;;4990010;28;20038;-61
2021/11/24 11:14:15;;;;;;;7.70;1.88;;;;;;;;;;5014449;28;20060;-60
2021/11/24 11:16:42;;;;;;;12.03;2.03;;;;;;;;;;5001339;28;20150;-60
2021/11/24 11:19:08;;;;;;;3.10;1.60;;;;;;;;;;5002277;28;20037;-59
2021/11/24 11:21:35;;;;;;;5.22;1.88;;;;;;;;;;4997956;28;20050;-59
2021/11/24 11:24:07;;;;;;;1.70;1.48;;;;;;;;;;4997278;28;20056;-60
2021/11/24 11:26:35;;;;;;;9.25;1.70;;;;;;;;;;5006506;28;20041;-59
2021/11/24 11:29:01;;;;;;;2.58;1.50;;;;;;;;;;4997539;28;20929;-59
2021/11/24 11:31:28;;;;;;;10.07;1.75;;;;;;;;;;5000365;28;20724;-60
2021/11/24 11:33:58;;;;;;;4.25;1.80;;;;;;;;;;4987059;28;20560;-62
2021/11/24 11:36:26;;;;;;;5.75;2.03;;;;;;;;;;5001013;28;20038;-60
2021/11/24 11:39:00;;;;;;;7.20;2.03;;;;;;;;;;4970868;28;20044;-60
2021/11/24 11:41:30;;;;;;;4.00;2.05;;;;;;;;;;5002507;28;20033;-59
2021/11/24 11:43:55;;;;;;;5.10;1.80;;;;;;;;;;4991871;28;20038;-60
2021/11/24 11:46:22;;;;;;;3.22;2.03;;;;;;;;;;5001784;28;20025;-61
2021/11/24 11:48:48;;;;;;;1.90;1.70;;;;;;;;;;5007135;28;20087;-59
2021/11/24 11:51:25;;;;;;;3.67;2.03;;;;;;;;;;5002375;28;20037;-59
2021/11/24 11:53:55;;;;;;;7.03;2.13;;;;;;;;;;5003698;28;20029;-59
2021/11/24 11:56:20;;;;;;;3.58;1.73;;;;;;;;;;5017479;28;20154;-61
2021/11/24 11:58:49;;;;;;;4.55;1.67;;;;;;;;;;5018949;28;20144;-59
2021/11/24 12:01:19;;;;;;;5.80;1.83;;;;;;;;;;5019260;28;20663;-60
2021/11/24 12:04:07;;;;;;;3.50;2.00;;;;;;;;;;5019549;28;20033;-59
2021/11/24 12:06:37;;;;;;;2.33;1.80;;;;;;;;;;5022595;28;22048;-61
2021/11/24 12:09:06;;;;;;;3.30;2.10;;;;;;;;;;5024682;28;20039;-60
2021/11/24 12:12:04;;;;;;;5.57;1.65;;;;;;;;;;5027305;28;20033;-58
2021/11/24 12:14:41;;;;;;;3.58;2.00;;;;;;;;;;5021058;28;20033;-59
2021/11/24 12:17:26;;;;;;;2.90;2.20;;;;;;;;;;5020656;28;20025;-58
2021/11/24 12:19:57;;;;;;;6.55;2.17;;;;;;;;;;5020341;28;20033;-61
2021/11/24 12:22:46;;;;;;;3.55;1.73;;;;;;;;;;5019891;28;20026;-59
2021/11/24 12:25:18;;;;;;;3.30;1.73;;;;;;;;;;5017714;28;20118;-59
2021/11/24 12:28:07;;;;;;;5.28;2.08;;;;;;;;;;5016523;28;20086;-59
2021/11/24 12:30:36;;;;;;;8.35;1.98;;;;;;;;;;5026055;28;20029;-60
2021/11/24 12:33:08;;;;;;;5.53;2.10;;;;;;;;;;5020161;28;20025;-60
2021/11/24 12:35:39;;;;;;;4.38;1.95;;;;;;;;;;5018153;28;20036;-60
2021/11/24 12:38:12;;;;;;;6.60;1.90;;;;;;;;;;5019886;28;20032;-59
2021/11/24 12:40:43;;;;;;;6.68;1.90;;;;;;;;;;5019929;28;21444;-60
2021/11/24 12:43:17;;;;;;;3.65;2.08;;;;;;;;;;5017888;28;20080;-60
2021/11/24 12:46:02;;;;;;;5.95;1.83;;;;;;;;;;5026434;28;20037;-60
2021/11/24 12:48:31;;;;;;;3.00;2.00;;;;;;;;;;5026972;28;20045;-60
2021/11/24 12:50:59;;;;;;;2.05;1.73;;;;;;;;;;5010827;28;20132;-60
2021/11/24 12:53:25;;;;;;;4.57;1.83;;;;;;;;;;5009605;28;20948;-60
2021/11/24 12:56:05;;;;;;;2.30;1.83;;;;;;;;;;5019222;28;20045;-59
2021/11/24 12:58:35;;;;;;;3.00;1.73;;;;;;;;;;5021548;28;21085;-61
2021/11/24 13:01:12;;;;;;;3.33;1.33;;;;;;;;;;5034696;28;20685;-60
2021/11/24 13:03:38;;;;;;;4.60;2.00;;;;;;;;;;5020193;28;20083;-60
2021/11/24 13:06:04;;;;;;;7.72;2.13;;;;;;;;;;5020880;28;20040;-60
2021/11/24 13:08:33;;;;;;;2.92;1.52;;;;;;;;;;5018297;28;20045;-60
2021/11/24 13:11:06;;;;;;;4.05;2.25;;;;;;;;;;5017550;28;20033;-59
2021/11/24 13:13:34;;;;;;;4.00;2.00;;;;;;;;;;5020823;28;20055;-61
2021/11/24 13:16:04;;;;;;;3.78;2.08;;;;;;;;;;5018029;28;20042;-60
2021/11/24 13:18:32;;;;;;;4.15;2.15;;;;;;;;;;5022055;28;20033;-61
2021/11/24 13:21:05;;;;;;;4.35;2.20;;;;;;;;;;5024026;28;20029;-60
2021/11/24 13:23:30;;;;;;;3.20;1.95;;;;;;;;;;5018995;28;20079;-60
2021/11/24 13:25:57;;;;;;;3.33;1.80;;;;;;;;;;5019577;28;20068;-60
2021/11/24 13:28:25;;;;;;;4.45;2.03;;;;;;;;;;5020030;28;20055;-60
2021/11/24 13:30:52;;;;;;;8.07;2.22;;;;;;;;;;5026130;28;20036;-59
2021/11/24 13:33:19;;;;;;;6.65;2.20;;;;;;;;;;5018988;28;22084;-60
2021/11/24 13:35:45;;;;;;;2.58;1.77;;;;;;;;;;5018664;28;20042;-60
2021/11/24 13:38:16;;;;;;;3.13;1.95;;;;;;;;;;5008609;28;20036;-60
2021/11/24 13:40:48;;;;;;;2.10;1.77;;;;;;;;;;5033408;28;20040;-60
2021/11/24 13:43:29;;;;;;;10.65;2.45;;;;;;;;;;5018987;28;20036;-59
2021/11/24 13:45:56;;;;;;;4.95;2.67;;;;;;;;;;5019062;28;20187;-63
2021/11/24 13:48:24;;;;;;;6.80;2.53;;;;;;;;;;5008853;28;20041;-59
2021/11/24 13:50:54;;;;;;;8.48;2.53;;;;;;;;;;5006630;28;20953;-61
2021/11/24 13:53:21;;;;;;;5.28;2.15;;;;;;;;;;5017834;28;20033;-60
2021/11/24 13:56:07;;;;;;;5.00;2.38;;;;;;;;;;5009079;28;20100;-61
2021/11/24 13:58:35;;;;;;;5.38;2.25;;;;;;;;;;5002447;28;20095;-60
2021/11/24 14:01:11;;;;;;;3.53;1.90;;;;;;;;;;5015963;28;20053;-61
2021/11/24 14:03:36;;;;;;;3.03;2.22;;;;;;;;;;5006453;28;20029;-59
2021/11/24 14:06:06;;;;;;;5.80;2.70;;;;;;;;;;5018855;28;20112;-61
2021/11/24 14:08:36;;;;;;;3.83;2.55;;;;;;;;;;5019866;28;20067;-60
2021/11/24 14:11:04;;;;;;;3.53;1.90;;;;;;;;;;5017144;28;20030;-60
2021/11/24 14:13:38;;;;;;;4.22;2.83;;;;;;;;;;5018670;28;21963;-59
2021/11/24 14:16:08;;;;;;;14.48;3.08;;;;;;;;;;5016409;28;20032;-60
2021/11/24 14:18:34;;;;;;;3.40;2.00;;;;;;;;;;5015985;28;20120;-60
2021/11/24 14:21:06;;;;;;;4.07;2.05;;;;;;;;;;5015743;28;20043;-60
2021/11/24 14:23:34;;;;;;;4.07;2.65;;;;;;;;;;5002164;28;20043;-60
2021/11/24 14:26:00;;;;;;;3.97;2.58;;;;;;;;;;5020929;28;20030;-59
2021/11/24 14:28:28;;;;;;;3.30;2.40;;;;;;;;;;5018281;28;20583;-60
2021/11/24 14:31:06;;;;;;;5.13;2.78;;;;;;;;;;5003620;28;20033;-60
2021/11/24 14:33:34;;;;;;;4.22;2.30;;;;;;;;;;5017649;28;20040;-60
2021/11/24 14:36:00;;;;;;;3.85;2.47;;;;;;;;;;5019207;28;20533;-60
2021/11/24 14:38:28;;;;;;;3.08;2.30;;;;;;;;;;5016187;28;20033;-60
2021/11/24 14:40:53;;;;;;;3.47;2.45;;;;;;;;;;4988162;28;20090;-61
2021/11/24 14:43:23;;;;;;;4.97;2.40;;;;;;;;;;5015055;28;20048;-60
2021/11/24 14:45:51;;;;;;;3.97;2.10;;;;;;;;;;5002134;28;20036;-59
2021/11/24 14:48:19;;;;;;;4.20;2.50;;;;;;;;;;5013652;28;20036;-60
2021/11/24 14:50:49;;;;;;;2.83;2.13;;;;;;;;;;5014934;28;20033;-60
2021/11/24 14:53:15;;;;;;;3.58;2.38;;;;;;;;;;5030665;28;20056;-60
2021/11/24 14:55:42;;;;;;;6.35;2.65;;;;;;;;;;5021193;28;20266;-59
2021/11/24 14:58:13;;;;;;;4.82;2.33;;;;;;;;;;5012553;28;20037;-61
2021/11/24 15:00:38;;;;;;;7.20;2.35;;;;;;;;;;5010684;28;20026;-61
2021/11/24 15:03:06;;;;;;;5.07;2.22;;;;;;;;;;5013010;28;21118;-60
2021/11/24 15:05:32;;;;;;;4.00;2.33;;;;;;;;;;5016736;28;20987;-60
2021/11/24 15:08:00;;;;;;;5.43;2.70;;;;;;;;;;5016151;28;20670;-61